Time;durP1;ratioP1;P1;durP2;ratioP2;P2;SDS_P1;SDS_P2;PMS_P1;PMS_P2;Temp;Humidity;BMP_temperature;BMP_pressure;BME280_temperature;BME280_humidity;BME280_pressure;Samples;Min_cycle;Max_cycle;Signal;HPM_P1;HPM_P2
2024/01/23 16:17:59;;;;;;;74.35;32.00;;;4.00;99.90;;;;;;5095854;27;20322;-51
2024/01/23 16:20:25;;;;;;;;;;;4.00;99.90;;;;;;5096783;28;20471;-48
2024/01/23 16:22:50;;;;;;;65.15;31.30;;;3.90;99.90;;;;;;5083923;28;19919;-47
2024/01/23 16:25:16;;;;;;;78.30;33.47;;;3.90;99.90;;;;;;5083191;28;20077;-50
2024/01/23 16:27:42;;;;;;;71.55;33.60;;;3.90;99.90;;;;;;5074724;28;20139;-47
2024/01/23 16:30:08;;;;;;;74.63;32.22;;;3.90;99.90;;;;;;5063538;28;20834;-50
2024/01/23 16:32:34;;;;;;;81.25;33.97;;;3.90;99.90;;;;;;5066314;28;20024;-50
2024/01/23 16:35:00;;;;;;;74.38;33.72;;;3.90;99.90;;;;;;5084354;28;20043;-53
2024/01/23 16:37:26;;;;;;;75.75;35.72;;;3.80;99.90;;;;;;5057118;28;20877;-54
2024/01/23 16:39:51;;;;;;;81.88;35.58;;;3.80;99.90;;;;;;5082809;28;20110;-47
2024/01/23 16:42:17;;;;;;;75.38;35.40;;;3.80;99.90;;;;;;5083393;28;20719;-50
2024/01/23 16:44:43;;;;;;;78.60;33.67;;;3.70;99.90;;;;;;5082441;28;20023;-46
2024/01/23 16:47:10;;;;;;;78.13;36.92;;;3.70;99.90;;;;;;5074256;28;20071;-47
2024/01/23 16:49:36;;;;;;;71.82;34.33;;;3.70;99.90;;;;;;5077017;28;22331;-53
2024/01/23 16:52:01;;;;;;;72.20;33.45;;;3.70;99.90;;;;;;5082488;28;20465;-50
2024/01/23 16:54:27;;;;;;;69.30;32.75;;;3.80;99.90;;;;;;5062569;28;20556;-49
2024/01/23 16:56:53;;;;;;;65.75;30.67;;;3.80;99.90;;;;;;5075055;28;20040;-52
2024/01/23 16:59:18;;;;;;;71.75;30.73;;;3.70;99.90;;;;;;5082078;28;20024;-49
2024/01/23 17:01:44;;;;;;;70.68;32.90;;;3.70;99.90;;;;;;5080814;28;20019;-47
2024/01/23 17:04:10;;;;;;;64.68;31.52;;;3.70;99.90;;;;;;5063446;28;20028;-49
2024/01/23 17:06:36;;;;;;;62.47;32.55;;;3.70;99.90;;;;;;5055459;28;21341;-46
2024/01/23 17:09:01;;;;;;;81.05;36.70;;;3.70;99.90;;;;;;5081540;28;20024;-48
2024/01/23 17:11:29;;;;;;;93.47;41.42;;;3.70;99.90;;;;;;5082255;28;20382;-52
2024/01/23 17:13:55;;;;;;;81.68;40.05;;;3.70;99.90;;;;;;5081976;28;20138;-50
2024/01/23 17:16:20;;;;;;;105.90;47.35;;;3.70;99.90;;;;;;5077521;28;22037;-51
2024/01/23 17:18:46;;;;;;;99.63;43.80;;;3.60;99.90;;;;;;5080542;28;20157;-48
2024/01/23 17:21:12;;;;;;;92.13;41.78;;;3.60;99.90;;;;;;5082103;28;20028;-51
2024/01/23 17:23:38;;;;;;;86.90;39.00;;;3.50;99.90;;;;;;5063440;28;20111;-53
2024/01/23 17:26:03;;;;;;;77.93;35.00;;;3.50;99.90;;;;;;5079549;28;20622;-49
2024/01/23 17:28:29;;;;;;;76.35;35.55;;;3.50;99.90;;;;;;5066802;28;20068;-51
2024/01/23 17:30:55;;;;;;;79.93;36.13;;;3.50;99.90;;;;;;5067871;28;20032;-48
2024/01/23 17:33:21;;;;;;;77.68;37.22;;;3.50;99.90;;;;;;5068121;28;20028;-47
2024/01/23 17:35:46;;;;;;;79.60;33.97;;;3.50;99.90;;;;;;5048863;28;20473;-50
2024/01/23 17:38:12;;;;;;;80.03;36.47;;;3.50;99.90;;;;;;5060245;28;20506;-49
2024/01/23 17:40:38;;;;;;;74.50;37.13;;;3.50;99.90;;;;;;5067953;28;20042;-51
2024/01/23 17:43:04;;;;;;;86.03;37.38;;;3.50;99.90;;;;;;5050341;28;20039;-50
2024/01/23 17:45:29;;;;;;;81.95;38.97;;;3.50;99.90;;;;;;5066817;28;20024;-52
2024/01/23 17:47:55;;;;;;;77.43;36.65;;;3.50;99.90;;;;;;5059590;28;20164;-48
2024/01/23 17:50:22;;;;;;;68.32;32.65;;;3.50;99.90;;;;;;5068320;28;20035;-50
2024/01/23 17:52:48;;;;;;;75.22;34.35;;;3.50;99.90;;;;;;5067862;28;20432;-48
2024/01/23 17:55:14;;;;;;;78.95;35.70;;;3.50;99.90;;;;;;5067404;28;20424;-49
2024/01/23 17:57:40;;;;;;;77.40;34.05;;;3.50;99.90;;;;;;5058812;28;22220;-50
2024/01/23 18:00:07;;;;;;;80.78;36.97;;;3.50;99.90;;;;;;5068386;28;20026;-52
2024/01/23 18:02:32;;;;;;;74.78;38.03;;;3.50;99.90;;;;;;5067092;28;20108;-49
2024/01/23 18:04:58;;;;;;;92.95;40.20;;;3.50;99.90;;;;;;5067403;28;20040;-49
2024/01/23 18:07:24;;;;;;;91.80;42.05;;;3.50;99.90;;;;;;5059519;28;20036;-47
2024/01/23 18:09:50;;;;;;;88.80;39.20;;;3.50;99.90;;;;;;5066316;28;20507;-48
2024/01/23 18:12:16;;;;;;;94.50;42.40;;;3.60;99.90;;;;;;5067260;28;20036;-50
2024/01/23 18:14:42;;;;;;;83.55;39.10;;;3.50;99.90;;;;;;5067317;28;20035;-48
2024/01/23 18:17:08;;;;;;;94.47;40.67;;;3.50;99.90;;;;;;5040014;28;20502;-50
2024/01/23 18:19:34;;;;;;;89.15;41.03;;;3.60;99.90;;;;;;5066426;28;20024;-47
2024/01/23 18:22:00;;;;;;;89.95;41.97;;;3.50;99.90;;;;;;5067184;28;20035;-47
2024/01/23 18:24:25;;;;;;;90.28;42.33;;;3.50;99.90;;;;;;5067160;28;20105;-50
2024/01/23 18:26:51;;;;;;;94.15;41.33;;;3.60;99.90;;;;;;5057637;28;20036;-50
2024/01/23 18:29:17;;;;;;;78.97;35.55;;;3.50;99.90;;;;;;5067135;28;20896;-52
2024/01/23 18:31:45;;;;;;;89.53;35.88;;;3.50;99.90;;;;;;5066353;28;20032;-47
2024/01/23 18:34:11;;;;;;;81.88;36.75;;;3.50;99.90;;;;;;5066088;28;20042;-47
2024/01/23 18:36:37;;;;;;;84.20;37.30;;;3.60;99.90;;;;;;5058509;28;20554;-50
2024/01/23 18:39:03;;;;;;;76.50;35.42;;;3.60;99.90;;;;;;5066011;28;20028;-49
2024/01/23 18:41:28;;;;;;;79.22;38.13;;;3.60;99.90;;;;;;5066407;28;20061;-48
2024/01/23 18:43:54;;;;;;;76.72;34.83;;;3.60;99.90;;;;;;5066735;28;20028;-48
2024/01/23 18:46:20;;;;;;;88.32;36.42;;;3.60;99.90;;;;;;5059477;28;20107;-46
2024/01/23 18:48:46;;;;;;;91.82;38.17;;;3.60;99.90;;;;;;5065331;28;20024;-49
2024/01/23 18:51:13;;;;;;;72.47;32.17;;;3.70;99.90;;;;;;5067304;28;21038;-49
2024/01/23 18:53:38;;;;;;;73.35;32.13;;;3.70;99.90;;;;;;5066637;28;20052;-49
2024/01/23 18:56:04;;;;;;;71.15;31.55;;;3.80;99.90;;;;;;5061934;28;20056;-50
2024/01/23 18:58:30;;;;;;;67.28;30.10;;;3.70;99.90;;;;;;5061676;28;20036;-48
2024/01/23 19:00:56;;;;;;;77.28;32.85;;;3.80;99.90;;;;;;5048964;28;20059;-51
2024/01/23 19:03:22;;;;;;;65.90;28.63;;;3.80;99.90;;;;;;5066738;28;20077;-51
2024/01/23 19:05:47;;;;;;;65.18;28.67;;;3.80;99.90;;;;;;5065448;28;20024;-48
2024/01/23 19:08:14;;;;;;;61.10;26.88;;;3.90;99.90;;;;;;5056949;28;20059;-54
2024/01/23 19:10:40;;;;;;;64.97;28.00;;;3.90;99.90;;;;;;5066282;28;20189;-49
2024/01/23 19:13:06;;;;;;;55.92;25.38;;;3.90;99.90;;;;;;5066251;28;20772;-51
2024/01/23 19:15:32;;;;;;;64.43;26.70;;;4.00;99.90;;;;;;5065736;28;20108;-49
2024/01/23 19:17:57;;;;;;;61.15;26.27;;;4.10;99.90;;;;;;5057099;28;20105;-48
2024/01/23 19:20:24;;;;;;;67.82;26.40;;;4.10;99.90;;;;;;5066255;28;20085;-48
2024/01/23 19:22:49;;;;;;;69.38;30.73;;;4.10;99.90;;;;;;5065636;28;20748;-48
2024/01/23 19:25:15;;;;;;;69.53;28.00;;;4.10;99.90;;;;;;5065962;28;20085;-54
2024/01/23 19:27:41;;;;;;;67.93;28.55;;;4.10;99.90;;;;;;5057958;28;20101;-48
2024/01/23 19:30:08;;;;;;;55.88;25.33;;;4.10;99.90;;;;;;5066975;28;20332;-52
2024/01/23 19:32:34;;;;;;;63.88;24.67;;;4.10;99.90;;;;;;5066350;28;20788;-49
2024/01/23 19:35:00;;;;;;;68.05;25.05;;;4.10;99.90;;;;;;5068321;28;20031;-51
2024/01/23 19:37:27;;;;;;;68.72;28.27;;;4.10;99.90;;;;;;5035061;28;20544;-49
2024/01/23 19:39:53;;;;;;;65.93;28.27;;;4.10;99.90;;;;;;5061752;28;20912;-46
2024/01/23 19:42:19;;;;;;;75.78;30.45;;;4.10;99.90;;;;;;5064507;28;20032;-52
2024/01/23 19:44:44;;;;;;;72.13;32.53;;;4.00;99.90;;;;;;5063783;28;20642;-48
2024/01/23 19:47:10;;;;;;;71.15;27.70;;;4.00;99.90;;;;;;5055240;28;20036;-49
2024/01/23 19:49:38;;;;;;;77.30;28.92;;;4.00;99.90;;;;;;5045383;28;20036;-51
2024/01/23 19:52:06;;;;;;;;;;;4.00;99.90;;;;;;5065294;28;20036;-50
2024/01/23 19:54:32;;;;;;;;;;;4.00;99.90;;;;;;5063904;28;19912;-52
2024/01/23 19:56:58;;;;;;;67.20;27.10;;;4.00;99.90;;;;;;5053638;28;20052;-51
2024/01/23 19:59:23;;;;;;;82.90;33.53;;;4.00;99.90;;;;;;5063759;28;20647;-48
2024/01/23 20:01:49;;;;;;;78.85;31.60;;;4.00;99.90;;;;;;5046457;28;20135;-50
2024/01/23 20:04:20;;;;;;;80.68;32.10;;;4.00;99.90;;;;;;5064143;28;20032;-47
2024/01/23 20:06:46;;;;;;;82.47;32.28;;;4.00;99.90;;;;;;5057061;28;21664;-48
2024/01/23 20:09:12;;;;;;;130.85;44.25;;;3.90;99.90;;;;;;5083625;28;20038;-51
2024/01/23 20:11:38;;;;;;;119.30;41.97;;;4.00;99.90;;;;;;5068309;28;22366;-52
2024/01/23 20:14:04;;;;;;;86.70;32.80;;;3.90;99.90;;;;;;5063545;28;20167;-50
2024/01/23 20:16:30;;;;;;;63.33;29.48;;;3.90;99.90;;;;;;5054088;28;20841;-50
2024/01/23 20:18:56;;;;;;;69.80;27.88;;;3.90;99.90;;;;;;5063702;28;20040;-49
2024/01/23 20:21:22;;;;;;;66.90;25.35;;;3.90;99.90;;;;;;5045241;28;20054;-49
2024/01/23 20:23:47;;;;;;;60.38;23.08;;;3.90;99.90;;;;;;5063350;28;20043;-52
2024/01/23 20:26:18;;;;;;;56.95;24.23;;;3.90;99.90;;;;;;5057605;28;20036;-47
2024/01/23 20:28:44;;;;;;;60.25;22.50;;;4.00;99.90;;;;;;5060440;28;20503;-47
2024/01/23 20:31:10;;;;;;;58.28;23.30;;;4.00;99.90;;;;;;5063674;28;20081;-49
2024/01/23 20:33:41;;;;;;;50.65;20.77;;;4.00;99.90;;;;;;5064624;28;20028;-51
2024/01/23 20:36:06;;;;;;;55.78;21.52;;;4.10;99.90;;;;;;5059715;28;20065;-50
2024/01/23 20:38:32;;;;;;;53.35;23.25;;;4.00;99.90;;;;;;5059079;28;20884;-50
2024/01/23 20:40:59;;;;;;;61.75;23.77;;;4.00;99.90;;;;;;5063791;28;20036;-49
2024/01/23 20:43:24;;;;;;;67.20;25.08;;;4.00;99.90;;;;;;5046137;28;20146;-50
2024/01/23 20:45:50;;;;;;;57.30;22.67;;;3.90;99.90;;;;;;5062637;28;20050;-50
2024/01/23 20:48:16;;;;;;;58.50;22.27;;;3.90;99.90;;;;;;5053925;28;21117;-50
2024/01/23 20:50:42;;;;;;;57.85;24.42;;;3.90;99.90;;;;;;5064539;28;20032;-47
2024/01/23 20:53:08;;;;;;;56.47;23.30;;;3.80;99.90;;;;;;5063714;28;20040;-49
2024/01/23 20:55:34;;;;;;;61.78;23.60;;;3.80;99.90;;;;;;5062756;28;20043;-49
2024/01/23 20:58:00;;;;;;;49.85;21.00;;;3.70;99.90;;;;;;5054266;28;20044;-50
2024/01/23 21:00:26;;;;;;;49.50;21.10;;;3.70;99.90;;;;;;5064625;28;21647;-49
2024/01/23 21:02:52;;;;;;;53.40;22.43;;;3.60;99.90;;;;;;5064911;28;20278;-53
2024/01/23 21:05:18;;;;;;;53.55;19.02;;;3.60;99.90;;;;;;5067558;28;20032;-52
2024/01/23 21:07:44;;;;;;;46.67;17.52;;;3.60;99.90;;;;;;5056166;28;20109;-50
2024/01/23 21:10:10;;;;;;;40.55;19.13;;;3.60;99.90;;;;;;5067334;28;20081;-53
2024/01/23 21:12:38;;;;;;;44.15;19.23;;;3.50;99.90;;;;;;5066877;28;20031;-50
2024/01/23 21:15:08;;;;;;;50.67;20.08;;;3.50;99.90;;;;;;5067757;28;20034;-51
2024/01/23 21:17:34;;;;;;;46.10;18.35;;;3.50;99.90;;;;;;5057167;28;20533;-52
2024/01/23 21:19:59;;;;;;;51.60;19.20;;;3.40;99.90;;;;;;5068385;28;20127;-48
2024/01/23 21:22:26;;;;;;;55.30;22.63;;;3.40;99.90;;;;;;5066926;28;20086;-49
2024/01/23 21:24:51;;;;;;;60.55;22.77;;;3.30;99.90;;;;;;5066849;28;20063;-51
2024/01/23 21:27:17;;;;;;;65.97;25.95;;;3.40;99.90;;;;;;5057984;28;20170;-48
2024/01/23 21:29:43;;;;;;;74.45;28.92;;;3.30;99.90;;;;;;5066972;28;20127;-48
2024/01/23 21:32:08;;;;;;;81.18;31.52;;;3.20;99.90;;;;;;5067718;28;20411;-48
2024/01/23 21:34:34;;;;;;;77.32;28.45;;;3.10;99.90;;;;;;5067173;28;20028;-51
2024/01/23 21:37:00;;;;;;;69.10;29.48;;;3.10;99.90;;;;;;5057854;28;20040;-49
2024/01/23 21:39:25;;;;;;;74.25;27.63;;;3.10;99.90;;;;;;5067440;28;20023;-47
2024/01/23 21:41:54;;;;;;;80.68;28.52;;;3.00;99.90;;;;;;5068444;28;20047;-51
2024/01/23 21:44:20;;;;;;;56.78;21.90;;;3.00;99.90;;;;;;5067652;28;20067;-49
2024/01/23 21:46:45;;;;;;;71.97;25.67;;;3.00;99.90;;;;;;5058119;28;20181;-52
2024/01/23 21:49:11;;;;;;;57.22;22.33;;;3.10;99.90;;;;;;5067860;28;20032;-49
2024/01/23 21:51:37;;;;;;;62.63;22.73;;;3.10;99.90;;;;;;5066694;28;20032;-50
2024/01/23 21:54:03;;;;;;;70.72;27.63;;;3.10;99.90;;;;;;5067679;28;20020;-49
2024/01/23 21:56:29;;;;;;;89.80;31.05;;;3.00;99.90;;;;;;5058656;28;20109;-48
2024/01/23 21:58:55;;;;;;;69.30;26.75;;;3.00;99.90;;;;;;5067023;28;20438;-48
2024/01/23 22:01:20;;;;;;;73.22;28.40;;;3.10;99.90;;;;;;5066558;28;20016;-52
2024/01/23 22:03:46;;;;;;;66.72;25.77;;;3.00;99.90;;;;;;5066409;28;20047;-49
2024/01/23 22:06:12;;;;;;;70.80;26.42;;;3.10;99.90;;;;;;5059666;28;20297;-51
2024/01/23 22:08:38;;;;;;;67.45;25.48;;;3.00;99.90;;;;;;5062517;28;20127;-47
2024/01/23 22:11:04;;;;;;;73.03;27.15;;;3.00;99.90;;;;;;5067086;28;20387;-51
2024/01/23 22:13:30;;;;;;;68.68;24.05;;;3.00;99.90;;;;;;5066077;28;20106;-48
2024/01/23 22:15:56;;;;;;;61.95;22.40;;;3.00;99.90;;;;;;5062401;28;20979;-48
2024/01/23 22:18:22;;;;;;;48.03;20.05;;;3.00;99.90;;;;;;5039299;28;20054;-47
2024/01/23 22:20:47;;;;;;;49.72;19.27;;;3.00;99.90;;;;;;5047522;28;20051;-50
2024/01/23 22:23:13;;;;;;;51.20;20.48;;;3.10;99.90;;;;;;5065898;28;20061;-50
2024/01/23 22:25:39;;;;;;;56.95;21.25;;;3.10;99.90;;;;;;5065773;28;20119;-53
2024/01/23 22:28:04;;;;;;;60.90;23.13;;;3.20;99.90;;;;;;5056188;28;20027;-50
2024/01/23 22:30:30;;;;;;;56.10;21.83;;;3.20;99.90;;;;;;5066487;28;20028;-49
2024/01/23 22:32:57;;;;;;;60.03;24.23;;;3.20;99.90;;;;;;5065904;28;20443;-51
2024/01/23 22:35:22;;;;;;;66.97;24.17;;;3.20;99.90;;;;;;5065824;28;20711;-49
2024/01/23 22:37:48;;;;;;;52.63;19.75;;;3.20;99.90;;;;;;5053882;28;20069;-50
2024/01/23 22:40:15;;;;;;;44.15;18.90;;;3.20;99.90;;;;;;5046579;28;20027;-50
2024/01/23 22:42:41;;;;;;;56.00;19.95;;;3.20;99.90;;;;;;5046357;28;20093;-48
2024/01/23 22:45:08;;;;;;;57.03;22.15;;;3.10;99.90;;;;;;5064322;28;20028;-48
2024/01/23 22:47:33;;;;;;;60.33;23.15;;;3.10;99.90;;;;;;5053462;28;20032;-50
2024/01/23 22:49:59;;;;;;;62.97;24.65;;;3.20;99.90;;;;;;5064596;28;20975;-49
2024/01/23 22:52:25;;;;;;;54.58;19.77;;;3.20;99.90;;;;;;5064789;28;20036;-50
2024/01/23 22:54:50;;;;;;;53.72;17.48;;;3.10;99.90;;;;;;5064314;28;20055;-50
2024/01/23 22:57:16;;;;;;;50.65;19.40;;;3.10;99.90;;;;;;5054538;28;20576;-47
2024/01/23 22:59:42;;;;;;;47.47;16.40;;;3.10;99.90;;;;;;5063302;28;20032;-51
2024/01/23 23:02:08;;;;;;;32.88;14.98;;;3.10;99.90;;;;;;5063913;28;20030;-49
2024/01/23 23:04:34;;;;;;;41.42;14.80;;;3.10;99.90;;;;;;5064738;28;20423;-50
2024/01/23 23:07:00;;;;;;;41.00;15.18;;;3.20;99.90;;;;;;5053011;28;20024;-48
2024/01/23 23:09:26;;;;;;;39.72;14.80;;;3.20;99.90;;;;;;5062783;28;20061;-51
2024/01/23 23:11:51;;;;;;;38.83;14.00;;;3.20;99.90;;;;;;5064006;28;20036;-52
2024/01/23 23:14:17;;;;;;;39.10;15.48;;;3.20;99.90;;;;;;5064410;28;20101;-49
2024/01/23 23:16:46;;;;;;;39.00;16.05;;;3.10;99.90;;;;;;5053925;28;20120;-51
2024/01/23 23:19:12;;;;;;;38.10;15.30;;;3.00;99.90;;;;;;5063552;28;20063;-51
2024/01/23 23:21:38;;;;;;;52.40;17.48;;;3.00;99.90;;;;;;5063454;28;20032;-52
2024/01/23 23:24:04;;;;;;;42.72;17.27;;;2.90;99.90;;;;;;5063271;28;20372;-53
2024/01/23 23:26:30;;;;;;;57.28;19.45;;;2.90;99.90;;;;;;5053648;28;20151;-50
2024/01/23 23:28:56;;;;;;;57.13;18.30;;;2.90;99.90;;;;;;5064766;28;20101;-50
2024/01/23 23:31:22;;;;;;;50.55;17.58;;;2.90;99.90;;;;;;5064761;28;20062;-51
2024/01/23 23:33:48;;;;;;;44.40;16.40;;;2.90;99.90;;;;;;5063894;28;20482;-51
2024/01/23 23:36:14;;;;;;;53.97;19.60;;;2.90;99.90;;;;;;5059114;28;22771;-47
2024/01/23 23:38:40;;;;;;;52.45;17.02;;;2.90;99.90;;;;;;5060745;28;20093;-50
2024/01/23 23:41:05;;;;;;;39.55;15.20;;;2.90;99.90;;;;;;5064970;28;20028;-50
2024/01/23 23:43:31;;;;;;;34.70;13.82;;;2.80;99.90;;;;;;5063986;28;20104;-47
2024/01/23 23:45:57;;;;;;;35.92;13.18;;;2.80;99.90;;;;;;5060686;28;20131;-48
2024/01/23 23:48:22;;;;;;;35.72;13.52;;;2.70;99.90;;;;;;5056749;28;20025;-47
2024/01/23 23:50:48;;;;;;;42.78;17.02;;;2.80;99.90;;;;;;5064530;28;20383;-47
2024/01/23 23:53:14;;;;;;;56.85;20.20;;;2.90;99.90;;;;;;5064228;28;20113;-51
2024/01/23 23:55:39;;;;;;;50.33;19.52;;;2.90;99.90;;;;;;5062792;28;20036;-48
2024/01/23 23:58:05;;;;;;;35.70;14.32;;;2.90;99.90;;;;;;5053282;28;20094;-49
